Time;durP1;ratioP1;P1;durP2;ratioP2;P2;SDS_P1;SDS_P2;PMS_P1;PMS_P2;Temp;Humidity;BMP_temperature;BMP_pressure;BME280_temperature;BME280_humidity;BME280_pressure;Samples;Min_cycle;Max_cycle;Signal;HPM_P1;HPM_P2
2021/12/06 00:01:03;;;;;;;5.65;2.92;;;6.70;69.80;;;;;;5024738;28;20053;-73
2021/12/06 00:03:42;;;;;;;4.30;2.42;;;6.70;69.90;;;;;;5026291;28;20146;-72
2021/12/06 00:06:10;;;;;;;4.90;2.30;;;6.70;70.00;;;;;;5026560;28;20512;-73
2021/12/06 00:08:35;;;;;;;4.93;2.65;;;6.60;69.80;;;;;;5026379;28;20029;-73
2021/12/06 00:11:07;;;;;;;5.78;2.90;;;6.60;69.80;;;;;;5025905;28;20040;-73
2021/12/06 00:13:39;;;;;;;4.03;2.10;;;6.60;69.90;;;;;;5024963;28;20036;-73
2021/12/06 00:16:09;;;;;;;6.63;3.08;;;6.60;69.90;;;;;;5024170;28;20033;-75
2021/12/06 00:18:36;;;;;;;6.03;2.80;;;6.60;69.90;;;;;;5026264;28;20477;-75
2021/12/06 00:21:03;;;;;;;5.13;3.00;;;6.60;69.90;;;;;;5025031;28;20499;-74
2021/12/06 00:23:29;;;;;;;4.75;2.50;;;6.50;69.80;;;;;;5024397;28;20076;-73
2021/12/06 00:25:55;;;;;;;4.38;2.28;;;6.60;70.00;;;;;;5026692;28;20033;-77
2021/12/06 00:28:22;;;;;;;6.43;2.70;;;6.60;70.00;;;;;;5026192;28;20119;-76
2021/12/06 00:30:48;;;;;;;5.65;2.63;;;6.50;69.80;;;;;;5026357;28;20030;-75
2021/12/06 00:33:14;;;;;;;4.85;2.70;;;6.50;69.80;;;;;;5024285;28;20036;-72
2021/12/06 00:35:40;;;;;;;4.47;2.25;;;6.50;69.80;;;;;;5023817;28;20164;-73
2021/12/06 00:38:07;;;;;;;5.15;2.50;;;6.50;69.90;;;;;;5025189;28;20049;-75
2021/12/06 00:40:38;;;;;;;4.13;2.08;;;6.50;69.90;;;;;;5025874;28;20053;-76
2021/12/06 00:43:05;;;;;;;4.38;3.17;;;6.40;69.70;;;;;;5024742;28;20045;-74
2021/12/06 00:45:32;;;;;;;4.50;2.65;;;6.40;70.20;;;;;;5025705;28;20037;-75
2021/12/06 00:47:59;;;;;;;6.78;2.65;;;6.40;69.70;;;;;;5024920;28;20124;-78
2021/12/06 00:50:27;;;;;;;4.00;2.38;;;6.40;69.70;;;;;;5025551;28;20584;-75
2021/12/06 00:52:54;;;;;;;6.60;2.70;;;6.40;69.70;;;;;;5024583;28;20539;-79
2021/12/06 00:55:21;;;;;;;3.28;2.30;;;6.40;69.80;;;;;;5024772;28;20040;-73
2021/12/06 00:57:49;;;;;;;4.13;2.40;;;6.40;69.80;;;;;;5025849;28;20043;-73
2021/12/06 01:00:27;;;;;;;3.67;2.13;;;6.30;69.60;;;;;;5024289;28;20107;-74
2021/12/06 01:02:55;;;;;;;2.72;1.75;;;6.30;69.60;;;;;;5026265;28;20041;-74
2021/12/06 01:05:23;;;;;;;5.35;2.58;;;6.30;69.60;;;;;;5024340;28;20033;-73
2021/12/06 01:07:52;;;;;;;3.35;2.35;;;6.30;69.60;;;;;;5026193;28;20064;-79
2021/12/06 01:10:18;;;;;;;5.20;2.38;;;6.30;69.60;;;;;;5024632;28;20084;-74
2021/12/06 01:12:45;;;;;;;5.63;2.60;;;6.30;69.70;;;;;;5007879;28;20029;-74
2021/12/06 01:15:12;;;;;;;2.85;2.20;;;6.30;69.70;;;;;;5007650;28;20509;-74
2021/12/06 01:17:38;;;;;;;3.28;2.33;;;6.20;69.50;;;;;;5025214;28;20057;-73
2021/12/06 01:20:08;;;;;;;3.35;2.28;;;6.20;69.50;;;;;;5024201;28;20037;-73
2021/12/06 01:22:47;;;;;;;5.30;2.63;;;6.30;69.70;;;;;;5024700;28;20045;-74
2021/12/06 01:26:33;;;;;;;4.57;2.10;;;6.20;69.50;;;;;;5024185;28;20033;-74
2021/12/06 01:33:31;;;;;;;3.35;2.10;;;6.20;69.40;;;;;;5028045;28;20026;-74
2021/12/06 01:41:23;;;;;;;2.97;2.17;;;6.10;69.20;;;;;;5027800;28;20026;-73
2021/12/06 01:44:13;;;;;;;4.93;2.13;;;6.10;69.20;;;;;;5011017;28;20037;-76
2021/12/06 01:47:00;;;;;;;5.00;2.60;;;6.00;69.00;;;;;;5013163;28;20503;-75
2021/12/06 01:49:31;;;;;;;3.70;2.35;;;6.00;69.10;;;;;;5027102;28;20420;-73
2021/12/06 01:52:00;;;;;;;3.45;2.35;;;6.00;69.10;;;;;;5028378;28;20068;-74
2021/12/06 01:54:29;;;;;;;5.00;2.22;;;6.00;69.10;;;;;;5011843;28;20427;-73
2021/12/06 01:56:56;;;;;;;5.55;2.90;;;5.90;69.00;;;;;;5027944;28;20130;-73
2021/12/06 01:59:23;;;;;;;4.20;2.15;;;5.90;69.10;;;;;;5027097;28;20499;-73
2021/12/06 02:01:50;;;;;;;2.47;2.20;;;5.90;69.10;;;;;;5027268;28;20049;-75
2021/12/06 02:04:17;;;;;;;3.30;2.05;;;5.90;69.10;;;;;;5027425;28;20056;-74
2021/12/06 02:06:44;;;;;;;4.00;2.70;;;5.90;69.10;;;;;;5027209;28;20026;-74
2021/12/06 02:09:14;;;;;;;3.13;2.17;;;5.90;69.20;;;;;;5028386;28;20037;-75
2021/12/06 02:11:41;;;;;;;4.60;2.30;;;5.90;69.20;;;;;;5027868;28;20028;-74
2021/12/06 02:17:09;;;;;;;5.65;2.60;;;5.90;69.20;;;;;;5027507;28;20492;-78
2021/12/06 02:19:41;;;;;;;3.33;2.03;;;5.90;69.20;;;;;;5026500;28;20041;-78
2021/12/06 02:22:13;;;;;;;2.90;2.00;;;5.80;69.00;;;;;;5027114;28;20037;-75
2021/12/06 02:24:39;;;;;;;3.40;2.45;;;5.80;68.90;;;;;;5027584;28;20488;-76
2021/12/06 02:27:10;;;;;;;2.97;2.00;;;5.80;68.90;;;;;;5027139;28;20408;-75
2021/12/06 02:29:38;;;;;;;2.78;2.05;;;5.70;68.80;;;;;;5026672;28;20376;-76
2021/12/06 02:32:09;;;;;;;2.15;1.80;;;5.70;68.70;;;;;;5011748;28;20603;-75
2021/12/06 02:34:38;;;;;;;2.30;1.95;;;5.70;68.70;;;;;;5028561;28;20069;-74
2021/12/06 02:37:04;;;;;;;4.78;2.40;;;5.60;68.50;;;;;;5011473;28;20030;-75
2021/12/06 02:39:31;;;;;;;6.47;2.20;;;5.60;68.60;;;;;;5028258;28;20034;-75
2021/12/06 02:42:00;;;;;;;5.15;2.45;;;5.60;68.60;;;;;;5028654;28;20038;-76
2021/12/06 02:44:27;;;;;;;3.28;2.00;;;5.60;68.70;;;;;;5028506;28;20064;-74
2021/12/06 02:46:54;;;;;;;4.32;2.05;;;5.50;68.50;;;;;;5030319;28;20116;-76
2021/12/06 02:49:22;;;;;;;3.53;2.15;;;5.40;68.30;;;;;;5031494;28;20048;-81
2021/12/06 02:51:50;;;;;;;3.58;2.05;;;5.40;68.30;;;;;;5047980;28;20025;-77
2021/12/06 02:54:21;;;;;;;3.78;2.15;;;5.40;68.30;;;;;;5031484;28;20026;-83
2021/12/06 02:57:07;;;;;;;4.38;2.35;;;5.40;68.30;;;;;;5031300;28;20045;-75
2021/12/06 02:59:37;;;;;;;4.47;2.10;;;5.40;68.30;;;;;;5030750;28;20026;-77
2021/12/06 03:02:07;;;;;;;3.42;1.95;;;5.40;68.40;;;;;;5032325;28;20561;-78
2021/12/06 03:04:34;;;;;;;3.53;1.95;;;5.30;68.20;;;;;;5031259;28;20484;-75
2021/12/06 03:07:00;;;;;;;3.97;2.67;;;5.30;68.30;;;;;;5014796;28;20033;-76
2021/12/06 03:09:29;;;;;;;4.63;2.88;;;5.30;68.30;;;;;;5030858;28;20025;-74
2021/12/06 03:12:03;;;;;;;4.03;2.72;;;5.20;68.20;;;;;;5031359;28;20033;-75
2021/12/06 03:14:35;;;;;;;3.90;2.40;;;5.20;68.30;;;;;;5030698;28;20033;-76
2021/12/06 03:17:08;;;;;;;4.28;2.20;;;5.30;68.50;;;;;;5031322;28;20025;-82
2021/12/06 03:19:36;;;;;;;7.55;2.83;;;5.30;68.50;;;;;;5030768;28;20030;-78
2021/12/06 03:22:04;;;;;;;3.55;2.05;;;5.30;68.60;;;;;;5030786;28;20041;-79
2021/12/06 03:24:30;;;;;;;4.32;2.17;;;5.30;68.60;;;;;;5030746;28;20044;-74
2021/12/06 03:26:56;;;;;;;4.65;2.28;;;5.30;68.60;;;;;;5014660;28;20435;-75
2021/12/06 03:29:23;;;;;;;5.45;2.80;;;5.30;68.60;;;;;;5030851;28;20120;-76
2021/12/06 03:31:50;;;;;;;5.55;2.50;;;5.20;68.50;;;;;;5030848;28;20431;-75
2021/12/06 03:34:18;;;;;;;4.53;2.63;;;5.30;68.70;;;;;;5030790;28;20029;-74
2021/12/06 03:36:47;;;;;;;4.10;2.17;;;5.20;68.50;;;;;;5030371;28;20183;-81
2021/12/06 03:39:23;;;;;;;5.00;3.08;;;5.20;68.50;;;;;;5030103;28;20071;-75
2021/12/06 03:41:53;;;;;;;4.50;2.58;;;5.30;68.70;;;;;;5030773;28;20033;-78
2021/12/06 03:44:20;;;;;;;4.07;2.03;;;5.30;68.70;;;;;;5014146;28;20499;-74
2021/12/06 03:46:58;;;;;;;6.50;2.70;;;5.30;68.70;;;;;;5030408;28;20394;-74
2021/12/06 03:49:24;;;;;;;4.32;2.20;;;5.20;68.50;;;;;;5029454;28;20033;-74
2021/12/06 03:51:51;;;;;;;4.25;2.17;;;5.20;68.50;;;;;;5030388;28;20061;-77
2021/12/06 03:54:23;;;;;;;5.55;2.85;;;5.30;68.70;;;;;;5030505;28;20385;-75
2021/12/06 03:56:50;;;;;;;4.45;2.42;;;5.30;68.70;;;;;;5030165;28;20481;-79
2021/12/06 03:59:16;;;;;;;4.15;1.92;;;5.30;68.70;;;;;;5030194;28;20123;-77
2021/12/06 04:01:43;;;;;;;3.63;2.13;;;5.20;68.50;;;;;;5029577;28;20394;-75
2021/12/06 04:04:10;;;;;;;3.72;1.83;;;5.20;68.60;;;;;;5030091;28;20030;-74
2021/12/06 04:06:39;;;;;;;3.60;2.38;;;5.20;68.60;;;;;;5030146;28;20036;-76
2021/12/06 04:09:07;;;;;;;3.45;2.10;;;5.30;68.80;;;;;;5031104;28;20022;-74
2021/12/06 04:11:36;;;;;;;4.90;2.58;;;5.20;68.60;;;;;;5029591;28;20115;-75
2021/12/06 04:14:03;;;;;;;3.92;2.38;;;5.30;68.80;;;;;;5030153;28;20033;-75
2021/12/06 04:16:30;;;;;;;4.03;2.33;;;5.30;68.80;;;;;;5030061;28;20124;-75
2021/12/06 04:18:57;;;;;;;5.22;2.38;;;5.30;68.70;;;;;;5029883;28;20079;-76
2021/12/06 04:21:25;;;;;;;5.07;2.70;;;5.30;68.80;;;;;;5029667;28;20029;-74
2021/12/06 04:23:52;;;;;;;3.35;2.50;;;5.30;68.70;;;;;;5029773;28;20519;-74
2021/12/06 04:26:20;;;;;;;2.38;1.63;;;5.30;68.70;;;;;;5030014;28;20052;-74
2021/12/06 04:28:49;;;;;;;5.00;2.53;;;5.30;68.70;;;;;;5029646;28;20068;-78
2021/12/06 04:31:17;;;;;;;3.17;2.00;;;5.30;68.70;;;;;;5030908;28;20034;-78
2021/12/06 04:33:44;;;;;;;4.18;2.50;;;5.30;68.70;;;;;;5029895;28;20469;-80
2021/12/06 04:36:10;;;;;;;3.50;2.33;;;5.30;68.70;;;;;;5029625;28;20370;-78
2021/12/06 04:38:37;;;;;;;5.40;2.20;;;5.30;68.70;;;;;;5029874;28;20484;-74
2021/12/06 04:41:04;;;;;;;3.40;2.33;;;5.40;68.80;;;;;;5029087;28;20029;-79
2021/12/06 04:43:31;;;;;;;3.88;2.22;;;5.40;68.80;;;;;;5029838;28;20044;-76
2021/12/06 04:45:57;;;;;;;4.07;2.65;;;5.30;68.60;;;;;;5029545;28;20030;-76
2021/12/06 04:48:24;;;;;;;3.05;2.20;;;5.40;68.80;;;;;;5029847;28;20034;-75
2021/12/06 04:50:50;;;;;;;5.30;2.30;;;5.30;68.60;;;;;;5030729;28;20029;-77
2021/12/06 04:53:28;;;;;;;3.40;2.10;;;5.40;68.80;;;;;;5013282;28;20079;-75
2021/12/06 04:56:13;;;;;;;3.30;2.28;;;5.40;68.80;;;;;;5029177;28;20171;-74
2021/12/06 04:59:12;;;;;;;2.80;1.95;;;5.40;68.80;;;;;;5029484;28;20079;-77
2021/12/06 05:01:40;;;;;;;6.13;2.55;;;5.40;68.80;;;;;;5032242;28;20073;-75
2021/12/06 05:04:14;;;;;;;4.88;2.10;;;5.40;68.70;;;;;;5033539;28;20034;-76
2021/12/06 05:06:44;;;;;;;2.72;2.00;;;5.40;68.80;;;;;;5033405;28;20114;-78
2021/12/06 05:09:28;;;;;;;6.13;2.33;;;5.40;68.80;;;;;;5033125;28;20093;-81
2021/12/06 05:11:55;;;;;;;4.05;2.70;;;5.50;68.90;;;;;;5033426;28;20037;-76
2021/12/06 05:14:24;;;;;;;5.35;2.17;;;5.50;68.90;;;;;;5017351;28;20461;-81
2021/12/06 05:16:53;;;;;;;5.72;2.88;;;5.50;68.90;;;;;;5033116;28;20025;-75
2021/12/06 05:19:20;;;;;;;5.10;2.47;;;5.50;68.90;;;;;;5033024;28;20029;-77
2021/12/06 05:21:47;;;;;;;2.50;1.83;;;5.50;68.90;;;;;;5032992;28;20572;-75
2021/12/06 05:24:16;;;;;;;3.90;1.88;;;5.50;68.80;;;;;;5033365;28;20025;-75
2021/12/06 05:26:43;;;;;;;4.50;2.33;;;5.50;68.90;;;;;;5033194;28;20532;-77
2021/12/06 05:29:15;;;;;;;5.60;2.47;;;5.50;68.80;;;;;;5033023;28;20057;-78
2021/12/06 05:31:42;;;;;;;4.25;2.00;;;5.50;68.80;;;;;;5032890;28;20040;-75
2021/12/06 05:34:15;;;;;;;3.70;2.05;;;5.50;68.80;;;;;;5032995;28;20026;-76
2021/12/06 05:36:42;;;;;;;3.10;1.75;;;5.60;69.00;;;;;;5034423;28;20123;-75
2021/12/06 05:39:09;;;;;;;5.80;2.25;;;5.60;69.00;;;;;;5033823;28;20025;-77
2021/12/06 05:41:36;;;;;;;3.17;2.13;;;5.60;68.90;;;;;;5015823;28;20022;-76
2021/12/06 05:44:03;;;;;;;7.82;3.17;;;5.60;68.90;;;;;;5033879;28;20511;-74
2021/12/06 05:46:30;;;;;;;4.05;2.20;;;5.60;68.90;;;;;;5033793;28;20477;-74
2021/12/06 05:48:56;;;;;;;5.03;2.83;;;5.60;68.90;;;;;;5012000;28;20057;-77
2021/12/06 05:51:22;;;;;;;4.28;2.08;;;5.50;68.70;;;;;;5029372;28;20069;-75
2021/12/06 05:53:48;;;;;;;4.43;2.40;;;5.60;68.90;;;;;;5030427;28;20030;-75
2021/12/06 05:56:14;;;;;;;9.43;2.50;;;5.60;68.90;;;;;;5031251;28;20040;-77
2021/12/06 05:58:40;;;;;;;3.53;1.70;;;5.60;68.90;;;;;;5030011;28;20033;-76
2021/12/06 06:01:06;;;;;;;6.03;2.28;;;5.60;68.90;;;;;;5030116;28;20493;-76
2021/12/06 06:03:32;;;;;;;3.92;2.20;;;5.60;68.90;;;;;;5028053;28;20586;-75
2021/12/06 06:05:58;;;;;;;4.90;2.65;;;5.60;68.90;;;;;;5027904;28;20021;-75
2021/12/06 06:08:25;;;;;;;4.18;2.33;;;5.60;68.90;;;;;;5028343;28;20528;-80
2021/12/06 06:10:51;;;;;;;3.65;2.22;;;5.70;69.10;;;;;;5028006;28;20052;-76
2021/12/06 06:13:19;;;;;;;4.07;2.70;;;5.70;69.10;;;;;;5026812;28;20029;-75
2021/12/06 06:15:46;;;;;;;4.88;2.38;;;5.70;69.10;;;;;;5029140;28;20037;-75
2021/12/06 06:18:12;;;;;;;5.55;2.50;;;5.70;69.00;;;;;;5028654;28;20632;-75
2021/12/06 06:20:49;;;;;;;2.83;1.77;;;5.70;69.00;;;;;;5028341;28;20362;-78
2021/12/06 06:23:16;;;;;;;4.55;2.15;;;5.70;69.00;;;;;;5026462;28;20140;-76
2021/12/06 06:25:42;;;;;;;4.50;2.38;;;5.80;69.10;;;;;;5028123;28;20025;-75
2021/12/06 06:28:08;;;;;;;3.17;2.33;;;5.80;69.10;;;;;;5028453;28;20033;-75
2021/12/06 06:30:35;;;;;;;5.65;2.38;;;5.80;69.10;;;;;;5028420;28;20037;-74
2021/12/06 06:33:02;;;;;;;4.97;2.17;;;5.80;69.10;;;;;;5028344;28;20044;-75
2021/12/06 06:35:28;;;;;;;6.45;3.03;;;5.80;69.10;;;;;;5028048;28;20036;-75
2021/12/06 06:37:54;;;;;;;4.05;1.73;;;5.80;69.00;;;;;;5027758;28;20029;-74
2021/12/06 06:40:20;;;;;;;3.30;2.10;;;5.90;69.20;;;;;;5026113;28;20112;-73
2021/12/06 06:42:46;;;;;;;3.90;1.92;;;5.90;69.20;;;;;;5028098;28;20128;-75
2021/12/06 06:45:15;;;;;;;4.75;1.80;;;5.90;69.20;;;;;;5027883;28;20036;-76
2021/12/06 06:47:41;;;;;;;3.40;2.08;;;5.90;69.20;;;;;;5028421;28;20037;-81
2021/12/06 06:50:09;;;;;;;2.38;1.70;;;5.90;69.20;;;;;;5027992;28;20030;-76
2021/12/06 06:52:35;;;;;;;4.15;1.45;;;5.90;69.10;;;;;;5026267;28;20026;-82
2021/12/06 06:55:04;;;;;;;2.28;1.60;;;6.00;69.30;;;;;;5026477;28;20037;-78
2021/12/06 06:57:30;;;;;;;3.35;1.77;;;6.00;69.20;;;;;;5028229;28;20032;-75
2021/12/06 06:59:56;;;;;;;3.42;1.98;;;6.00;69.20;;;;;;5026372;28;20230;-73
2021/12/06 07:02:22;;;;;;;4.13;1.75;;;6.00;69.20;;;;;;5009427;28;20571;-74
2021/12/06 07:04:48;;;;;;;6.70;1.67;;;6.00;69.20;;;;;;5027487;28;20294;-75
2021/12/06 07:07:14;;;;;;;1.65;1.10;;;6.10;69.30;;;;;;5026818;28;20033;-77
2021/12/06 07:09:42;;;;;;;1.92;1.33;;;6.10;69.30;;;;;;5026472;28;20549;-75
2021/12/06 07:12:16;;;;;;;5.30;1.92;;;6.10;69.20;;;;;;5026093;28;20036;-75
2021/12/06 07:14:45;;;;;;;3.30;1.45;;;6.10;69.20;;;;;;5025704;28;20484;-74
2021/12/06 07:17:12;;;;;;;2.53;1.40;;;6.20;69.30;;;;;;5027715;28;20033;-75
2021/12/06 07:19:38;;;;;;;4.20;2.38;;;6.20;69.30;;;;;;5025906;28;20134;-80
2021/12/06 07:22:05;;;;;;;4.15;1.85;;;6.20;69.20;;;;;;5025715;28;20117;-74
2021/12/06 07:24:31;;;;;;;3.85;1.50;;;6.20;69.20;;;;;;5026400;28;20051;-80
2021/12/06 07:26:57;;;;;;;2.47;1.50;;;6.30;69.30;;;;;;5026433;28;20037;-81
2021/12/06 07:29:24;;;;;;;2.28;1.50;;;6.20;69.10;;;;;;5026089;28;20358;-74
2021/12/06 07:31:51;;;;;;;5.63;1.58;;;6.30;69.30;;;;;;5026360;28;20120;-79
2021/12/06 07:34:17;;;;;;;3.53;1.27;;;6.30;69.20;;;;;;5025659;28;20025;-74
2021/12/06 07:36:43;;;;;;;1.95;1.10;;;6.30;69.20;;;;;;5027296;28;20037;-79
2021/12/06 07:39:10;;;;;;;6.88;1.77;;;6.30;69.20;;;;;;5027101;28;20026;-82
2021/12/06 07:41:37;;;;;;;1.80;1.48;;;6.40;69.70;;;;;;5025245;28;20040;-81
2021/12/06 07:44:04;;;;;;;4.47;1.73;;;6.40;69.90;;;;;;5027041;28;20136;-75
2021/12/06 07:46:30;;;;;;;3.50;1.17;;;6.50;70.20;;;;;;5001385;28;20450;-75
2021/12/06 07:48:57;;;;;;;2.90;1.40;;;6.50;70.20;;;;;;5025666;28;20564;-79
2021/12/06 07:51:25;;;;;;;1.60;1.20;;;6.50;70.20;;;;;;5027043;28;20029;-76
2021/12/06 07:53:52;;;;;;;2.88;1.20;;;6.50;70.10;;;;;;5021804;28;20113;-76
2021/12/06 07:56:19;;;;;;;3.53;1.15;;;6.50;70.10;;;;;;5006191;28;20034;-82
2021/12/06 07:58:46;;;;;;;3.72;1.42;;;6.60;70.30;;;;;;5018188;28;20057;-76
2021/12/06 08:01:12;;;;;;;2.20;1.05;;;6.60;70.20;;;;;;5009686;28;20488;-75
2021/12/06 08:03:39;;;;;;;4.70;1.25;;;6.60;70.30;;;;;;5015238;28;20064;-84
2021/12/06 08:06:05;;;;;;;1.85;1.55;;;6.60;70.20;;;;;;5027212;28;20025;-77
2021/12/06 08:08:33;;;;;;;2.95;1.17;;;6.70;70.40;;;;;;5027236;28;20030;-78
2021/12/06 08:11:08;;;;;;;3.28;1.10;;;6.60;70.20;;;;;;5027082;28;20029;-78
2021/12/06 08:13:36;;;;;;;3.30;1.10;;;6.70;70.30;;;;;;5025963;28;20507;-78
2021/12/06 08:16:07;;;;;;;4.68;1.40;;;6.70;70.30;;;;;;5026476;28;20033;-81
2021/12/06 08:18:33;;;;;;;2.83;1.63;;;6.70;70.20;;;;;;5026623;28;20033;-77
2021/12/06 08:21:00;;;;;;;3.78;1.30;;;6.80;70.40;;;;;;5026039;28;20033;-78
2021/12/06 08:23:28;;;;;;;3.63;1.50;;;6.70;70.20;;;;;;5025764;28;20504;-74
2021/12/06 08:25:54;;;;;;;2.05;1.23;;;6.80;70.30;;;;;;5002027;28;20033;-78
2021/12/06 08:28:23;;;;;;;3.67;1.08;;;6.80;70.30;;;;;;5024484;28;20037;-75
2021/12/06 08:30:51;;;;;;;3.85;1.20;;;6.80;70.20;;;;;;5025820;28;20113;-76
2021/12/06 08:33:17;;;;;;;2.75;1.27;;;6.80;70.20;;;;;;5026009;28;20117;-78
2021/12/06 08:35:46;;;;;;;3.35;1.17;;;6.80;70.10;;;;;;5025904;28;20026;-84
2021/12/06 08:38:14;;;;;;;3.95;2.17;;;6.80;70.30;;;;;;5024713;28;20033;-86
2021/12/06 08:40:42;;;;;;;4.45;1.77;;;6.90;71.20;;;;;;5019443;28;20042;-80
2021/12/06 08:43:16;;;;;;;6.05;1.92;;;7.10;72.20;;;;;;5008235;28;20041;-82
2021/12/06 08:45:45;;;;;;;4.70;2.00;;;7.40;73.30;;;;;;5025717;28;20103;-80
2021/12/06 08:48:11;;;;;;;7.22;1.73;;;7.70;74.10;;;;;;5025752;28;20489;-78
2021/12/06 08:50:37;;;;;;;10.77;1.85;;;8.10;75.00;;;;;;5026595;28;20902;-81
2021/12/06 08:53:03;;;;;;;11.57;1.80;;;8.30;75.30;;;;;;5017625;28;20076;-78
2021/12/06 08:55:29;;;;;;;8.65;1.75;;;8.60;75.90;;;;;;5018901;28;20396;-78
2021/12/06 08:57:56;;;;;;;4.57;1.20;;;8.90;76.50;;;;;;5025774;28;20120;-77
2021/12/06 09:00:27;;;;;;;6.65;2.03;;;9.10;76.70;;;;;;5021454;28;20046;-77
2021/12/06 09:02:54;;;;;;;4.07;1.42;;;9.40;77.30;;;;;;5019011;28;20045;-80
2021/12/06 09:05:24;;;;;;;5.88;1.95;;;9.50;77.30;;;;;;5024276;28;20030;-76
2021/12/06 09:07:51;;;;;;;4.95;1.13;;;9.80;77.70;;;;;;5023536;28;20048;-81
2021/12/06 09:10:17;;;;;;;7.95;1.30;;;10.00;77.80;;;;;;5036357;28;20029;-83
2021/12/06 09:12:43;;;;;;;3.58;1.20;;;10.10;77.60;;;;;;5025594;28;20029;-79
2021/12/06 09:15:14;;;;;;;5.43;0.98;;;10.20;77.60;;;;;;5023842;28;20025;-78
2021/12/06 09:17:40;;;;;;;5.40;1.63;;;10.20;77.50;;;;;;5024712;28;20375;-80
2021/12/06 09:20:09;;;;;;;3.20;1.25;;;10.20;77.60;;;;;;5024776;28;20025;-81
2021/12/06 09:22:36;;;;;;;7.57;1.58;;;10.20;77.60;;;;;;5025695;28;20048;-80
2021/12/06 09:25:03;;;;;;;4.38;1.20;;;10.20;77.70;;;;;;5025752;28;20063;-79
2021/12/06 09:27:29;;;;;;;4.30;2.17;;;10.20;77.70;;;;;;5025920;28;20060;-81
2021/12/06 09:29:57;;;;;;;7.70;1.33;;;10.10;77.60;;;;;;5026215;28;20384;-80
2021/12/06 09:32:23;;;;;;;2.72;1.00;;;10.10;77.60;;;;;;5020581;28;20036;-79
2021/12/06 09:34:50;;;;;;;3.10;1.10;;;10.00;77.50;;;;;;5024952;28;20033;-78
2021/12/06 09:37:19;;;;;;;4.18;1.00;;;9.90;77.30;;;;;;5024401;28;20037;-78
2021/12/06 09:39:45;;;;;;;7.90;1.00;;;9.80;77.10;;;;;;5040361;28;20030;-80
2021/12/06 09:42:11;;;;;;;3.05;1.08;;;9.80;77.20;;;;;;5025455;28;20038;-78
2021/12/06 09:44:37;;;;;;;2.15;1.10;;;9.70;77.00;;;;;;5025241;28;20056;-78
2021/12/06 09:47:04;;;;;;;1.98;0.80;;;9.70;77.10;;;;;;5025837;28;20544;-78
2021/12/06 09:49:31;;;;;;;12.40;3.35;;;9.60;76.80;;;;;;5027253;28;20036;-78
2021/12/06 09:52:03;;;;;;;64.18;16.85;;;9.60;76.90;;;;;;5029439;28;20029;-75
2021/12/06 09:54:33;;;;;;;75.20;19.58;;;9.50;77.30;;;;;;5028820;28;20669;-76
2021/12/06 09:57:02;;;;;;;71.25;19.70;;;9.70;78.50;;;;;;5029178;28;20052;-75
2021/12/06 09:59:28;;;;;;;68.00;20.63;;;9.90;79.40;;;;;;5028555;28;20039;-74
2021/12/06 10:01:59;;;;;;;76.68;21.98;;;10.20;80.10;;;;;;5027571;28;20404;-75
2021/12/06 10:04:28;;;;;;;71.85;22.75;;;10.40;80.80;;;;;;5022359;28;20025;-80
2021/12/06 10:06:55;;;;;;;75.10;20.73;;;10.60;81.30;;;;;;5028315;28;20476;-82
2021/12/06 10:09:22;;;;;;;115.05;25.35;;;10.70;81.70;;;;;;5023286;28;20080;-81
2021/12/06 10:11:50;;;;;;;91.68;25.25;;;10.90;82.20;;;;;;5022872;28;20133;-76
2021/12/06 10:14:16;;;;;;;85.47;26.65;;;11.10;82.80;;;;;;5022662;28;20076;-75
2021/12/06 10:16:43;;;;;;;70.72;21.05;;;11.20;83.10;;;;;;5027180;28;20033;-75
2021/12/06 10:19:10;;;;;;;74.22;21.00;;;11.40;83.70;;;;;;5026608;28;20112;-79
2021/12/06 10:21:37;;;;;;;92.22;23.10;;;11.50;84.00;;;;;;5026294;28;20458;-78
2021/12/06 10:24:15;;;;;;;81.47;19.45;;;11.60;84.30;;;;;;5026563;28;20053;-75
2021/12/06 10:26:41;;;;;;;74.95;17.60;;;11.70;84.80;;;;;;5026491;28;20028;-78
2021/12/06 10:29:19;;;;;;;49.22;14.85;;;11.80;85.00;;;;;;5026642;28;20203;-80
2021/12/06 10:31:47;;;;;;;38.88;13.70;;;11.90;85.30;;;;;;5009430;28;20038;-80
2021/12/06 10:34:19;;;;;;;37.75;11.90;;;12.00;85.40;;;;;;5027381;28;20492;-79
2021/12/06 10:36:46;;;;;;;42.65;14.05;;;12.10;85.60;;;;;;5028086;28;20449;-78
2021/12/06 10:39:12;;;;;;;26.75;10.43;;;12.20;85.60;;;;;;5027842;28;20076;-78
2021/12/06 10:41:38;;;;;;;30.92;12.88;;;12.30;85.60;;;;;;5027896;28;20064;-81
2021/12/06 10:44:12;;;;;;;26.63;8.38;;;12.40;85.60;;;;;;5027728;28;20033;-81
2021/12/06 10:46:43;;;;;;;26.95;9.40;;;12.50;85.60;;;;;;5027651;28;20076;-77
2021/12/06 10:49:14;;;;;;;28.98;9.70;;;12.50;85.30;;;;;;5026885;28;20129;-81
2021/12/06 10:51:40;;;;;;;28.20;9.50;;;12.60;85.20;;;;;;5028235;28;20091;-79
2021/12/06 10:54:16;;;;;;;16.05;7.43;;;12.70;85.10;;;;;;5027503;28;20030;-79
2021/12/06 10:56:46;;;;;;;22.63;8.95;;;12.80;85.00;;;;;;5010160;28;20026;-78
2021/12/06 10:59:28;;;;;;;17.25;6.68;;;12.90;84.80;;;;;;5027167;28;20037;-80
2021/12/06 11:02:02;;;;;;;46.33;9.32;;;13.00;84.70;;;;;;5026196;28;20049;-76
2021/12/06 11:04:32;;;;;;;39.55;10.05;;;13.10;84.70;;;;;;5028067;28;20033;-77
2021/12/06 11:07:05;;;;;;;46.85;11.43;;;13.20;84.70;;;;;;5026341;28;20025;-77
2021/12/06 11:09:34;;;;;;;33.63;9.02;;;13.30;84.80;;;;;;5027486;28;20022;-75
2021/12/06 11:12:04;;;;;;;38.00;9.23;;;13.40;85.00;;;;;;5025540;28;20112;-76
2021/12/06 11:14:40;;;;;;;43.25;10.00;;;13.50;85.10;;;;;;5026922;28;20432;-74
2021/12/06 11:17:09;;;;;;;53.67;11.13;;;13.60;85.30;;;;;;5026263;28;20040;-76
2021/12/06 11:19:36;;;;;;;65.70;12.55;;;13.80;85.70;;;;;;5026259;28;20485;-75
2021/12/06 11:22:02;;;;;;;82.82;13.55;;;13.90;85.90;;;;;;5026515;28;20069;-75
2021/12/06 11:24:41;;;;;;;71.57;15.73;;;14.00;86.00;;;;;;5025259;28;20041;-78
2021/12/06 11:27:29;;;;;;;55.92;11.43;;;14.10;86.30;;;;;;5025338;28;20469;-75
2021/12/06 11:30:00;;;;;;;48.13;11.68;;;14.20;86.60;;;;;;5027325;28;20224;-75
2021/12/06 11:32:36;;;;;;;47.30;11.50;;;14.30;87.10;;;;;;5027370;28;20030;-73
2021/12/06 11:35:09;;;;;;;57.53;12.57;;;14.40;86.90;;;;;;5026695;28;20033;-74
2021/12/06 11:37:50;;;;;;;54.25;11.63;;;14.50;87.00;;;;;;5027037;28;20497;-76
2021/12/06 11:40:28;;;;;;;78.30;14.18;;;14.60;87.40;;;;;;5026554;28;20052;-77
2021/12/06 11:43:00;;;;;;;68.50;14.45;;;14.70;87.60;;;;;;5024613;28;20068;-78
2021/12/06 11:45:32;;;;;;;137.95;20.20;;;14.70;87.40;;;;;;5025621;28;20044;-76
2021/12/06 11:48:07;;;;;;;80.67;16.27;;;14.70;87.60;;;;;;5025350;28;20033;-78
2021/12/06 11:50:37;;;;;;;80.20;15.77;;;14.70;88.00;;;;;;5026791;28;20132;-75
2021/12/06 11:53:07;;;;;;;73.68;17.13;;;14.70;88.20;;;;;;5026573;28;20346;-76
2021/12/06 11:55:36;;;;;;;49.60;10.23;;;14.70;88.50;;;;;;5026651;28;20025;-77
2021/12/06 11:58:03;;;;;;;39.15;8.85;;;14.80;88.80;;;;;;5026231;28;20393;-74
2021/12/06 12:00:30;;;;;;;43.97;9.27;;;14.80;88.70;;;;;;5026149;28;20132;-75
2021/12/06 12:03:00;;;;;;;41.58;9.45;;;14.80;88.50;;;;;;5024268;28;20041;-75
2021/12/06 12:05:26;;;;;;;47.03;12.75;;;14.80;88.30;;;;;;5020715;28;20030;-75
2021/12/06 12:08:04;;;;;;;35.63;8.98;;;14.80;88.30;;;;;;5017523;28;20094;-75
2021/12/06 12:10:48;;;;;;;25.45;8.98;;;14.90;89.10;;;;;;5005054;28;20033;-78
2021/12/06 12:13:27;;;;;;;33.47;7.93;;;14.90;88.40;;;;;;5008940;28;20030;-76
2021/12/06 12:16:02;;;;;;;38.88;10.07;;;15.00;88.40;;;;;;5024252;28;20037;-74
2021/12/06 12:18:29;;;;;;;23.55;7.97;;;15.10;88.50;;;;;;5026172;28;20036;-75
2021/12/06 12:20:56;;;;;;;33.75;10.18;;;15.20;88.50;;;;;;5026401;28;20511;-75
2021/12/06 12:23:25;;;;;;;52.80;13.43;;;15.20;88.30;;;;;;5025503;28;20053;-76
2021/12/06 12:26:02;;;;;;;45.28;13.50;;;15.30;88.50;;;;;;5025284;28;20033;-78
2021/12/06 12:28:38;;;;;;;42.28;11.45;;;15.40;88.80;;;;;;5026526;28;20037;-79
2021/12/06 12:31:08;;;;;;;32.72;11.40;;;15.50;89.00;;;;;;5026928;28;20021;-75
2021/12/06 12:33:36;;;;;;;27.40;8.20;;;15.60;89.20;;;;;;5025852;28;20067;-75
2021/12/06 12:36:14;;;;;;;26.38;9.68;;;15.60;88.90;;;;;;5026370;28;20372;-75
2021/12/06 12:38:44;;;;;;;22.33;6.70;;;15.70;88.80;;;;;;5024294;28;20025;-76
2021/12/06 12:41:15;;;;;;;25.90;8.35;;;15.70;88.50;;;;;;5026101;28;20041;-76
2021/12/06 12:43:54;;;;;;;23.30;7.22;;;15.70;88.10;;;;;;5026170;28;20037;-81
2021/12/06 12:46:30;;;;;;;14.90;5.63;;;15.70;87.80;;;;;;5010700;28;20056;-74
2021/12/06 12:48:59;;;;;;;20.92;6.22;;;15.70;87.60;;;;;;5016996;28;20038;-76
2021/12/06 12:51:32;;;;;;;20.23;6.03;;;15.70;87.30;;;;;;5008531;28;20021;-80
2021/12/06 12:54:25;;;;;;;21.88;6.10;;;15.60;86.90;;;;;;5026071;28;20095;-75
2021/12/06 12:56:58;;;;;;;25.48;6.93;;;15.60;86.60;;;;;;5025103;28;20185;-79
2021/12/06 12:59:42;;;;;;;35.75;8.60;;;15.60;86.60;;;;;;5023942;28;20029;-77
2021/12/06 13:02:28;;;;;;;32.40;8.27;;;15.60;86.70;;;;;;5025800;28;20095;-74
2021/12/06 13:04:57;;;;;;;38.45;8.13;;;15.60;86.80;;;;;;5024371;28;20041;-77
2021/12/06 13:07:50;;;;;;;39.28;8.93;;;15.60;86.90;;;;;;5025705;28;20022;-78
2021/12/06 13:10:40;;;;;;;47.27;9.07;;;15.70;87.40;;;;;;5024571;28;20408;-78
2021/12/06 13:13:29;;;;;;;57.88;11.85;;;15.80;87.70;;;;;;5026086;28;20029;-80
2021/12/06 13:16:06;;;;;;;198.40;24.75;;;15.90;87.60;;;;;;5025537;28;20036;-76